Latest Weather Observations for Sydney - Observatory Hill

IDN60801

Issued at 8:02 pm EST Tuesday 30 June 2015 (issued every 30 minutes, with the page automatically refreshed every 10 minutes)

About weather observations | Map of weather stations | Latest weather observations for NSW | Other Formats
Station Details ID: 066062 Name: SYDNEY (OBSERVATORY HILL) Lat: -33.86 Lon: 151.21 Height: 39.0 m
Data from the previous 72 hours. | See also: Recent months at Sydney - Observatory Hill

* Apparent temperature (App Temp) for Sydney - Observatory Hill is calculated using temperature observations collected at Sydney - Observatory Hill and wind observations collected at Fort Denison, as wind observations are not currently provided for Sydney - Observatory Hill.

Date/Time
EST
Temp
°C
App
Temp
°C
Dew
Point
Rel
Hum
%
Delta-T
°C
Wind Press
QNH
hPa
Press
MSL
hPa
Rain
since 9 am
mm
Dir
 
Spd
km/h
Gust
km/h
Spd
kts
Gust
kts
30/08:00pm 15.9 15.1 9.6 66 3.3 SW 4 - 2 - 1025.5 1025.5 0.0
30/07:30pm 16.2 15.4 9.8 66 3.3 NW 4 - 2 - 1025.5 1025.5 0.0
30/07:00pm 16.4 16.2 10.5 68 3.1 N 2 - 1 - 1025.5 1025.5 0.0
30/06:30pm 16.4 15.4 10.3 67 3.2 NE 6 - 3 - 1025.3 1025.3 0.0
30/06:00pm 16.5 16.0 10.6 68 3.1 NE 4 - 2 - 1025.3 1025.3 0.0
30/05:30pm 16.1 15.3 11.1 72 2.7 ENE 6 - 3 - 1025.2 1025.2 0.0
30/05:00pm 16.2 15.9 11.6 74 2.5 ENE 4 - 2 - 1024.9 1024.9 0.0
30/04:30pm 16.3 16.0 11.5 73 2.6 NE 4 - 2 - 1025.0 1025.0 0.0
30/04:00pm 16.5 15.1 10.8 69 3.0 E 9 - 5 - 1025.1 1025.1 0.0
30/03:30pm 17.2 15.1 9.9 62 3.9 E 11 - 6 - 1025.1 1025.1 0.0
30/03:00pm 17.9 16.4 9.0 56 4.6 ENE 7 - 4 - 1025.0 1025.0 0.0
30/02:30pm 18.5 17.9 9.0 54 5.0 WNW 2 - 1 - 1025.1 1025.1 0.0
30/02:00pm 17.9 16.3 8.7 55 4.7 WNW 7 - 4 - 1025.3 1025.3 0.0
30/01:30pm 17.1 15.1 8.8 58 4.3 W 9 - 5 - 1025.8 1025.8 0.0
30/01:00pm 16.6 15.0 8.6 59 4.1 W 7 - 4 - 1026.2 1026.2 0.0
30/12:30pm 14.9 13.1 9.5 70 2.8 WNW 9 - 5 - 1026.7 1026.7 0.0
30/12:00pm 13.7 11.1 9.2 74 2.3 W 13 - 7 - 1027.2 1027.2 0.0
30/11:30am 13.1 10.3 9.9 81 1.6 W 15 - 8 - 1027.8 1027.8 0.0
30/11:00am 12.4 11.6 9.8 84 1.3 W 4 - 2 - 1028.2 1028.2 0.0
30/10:30am 11.6 8.4 9.9 89 0.9 W 17 - 9 - 1028.9 1028.9 0.0
30/10:00am 11.0 7.7 9.6 91 0.7 W 17 - 9 - 1029.4 1029.4 0.0
30/09:30am 10.9 8.0 9.8 93 0.6 WNW 15 - 8 - 1029.4 1029.4 0.0
30/09:00am 10.7 6.5 9.8 94 0.5 W 22 - 12 - 1029.4 1029.4 0.0
30/08:30am 10.4 6.6 9.8 96 0.3 W 20 - 11 - 1029.2 1029.2 0.0
30/08:00am 9.7 7.1 9.2 97 0.2 W 13 - 7 - 1029.0 1029.0 0.0
30/07:30am 9.6 6.2 9.3 98 0.1 W 17 - 9 - 1028.9 1028.9 0.0
30/07:00am 9.1 6.3 8.6 97 0.2 WNW 13 - 7 - 1028.8 1028.8 0.0
30/06:30am 9.1 6.7 8.6 97 0.2 WNW 11 - 6 - 1028.7 1028.7 0.0
30/06:00am 9.2 5.1 8.6 96 0.3 W 20 - 11 - 1028.7 1028.7 0.0
30/05:30am 10.1 6.4 9.6 97 0.3 W 19 - 10 - 1028.5 1028.5 0.0
30/05:00am 10.1 8.3 9.6 97 0.2 WNW 9 - 5 - 1028.3 1028.3 0.0
30/04:30am 10.3 7.8 9.8 97 0.3 WNW 13 - 7 - 1028.2 1028.2 0.0
30/04:00am 10.4 7.5 9.8 96 0.3 WNW 15 - 8 - 1028.3 1028.3 0.0
30/03:30am 10.7 8.3 10.1 96 0.3 WNW 13 - 7 - 1028.6 1028.6 0.0
30/03:00am 10.9 8.1 10.1 95 0.4 WNW 15 - 8 - 1028.8 1028.8 0.0
30/02:30am 11.0 7.8 10.1 94 0.5 W 17 - 9 - 1029.0 1029.0 0.0
30/02:00am 11.1 8.0 10.2 94 0.5 W 17 - 9 - 1029.0 1029.0 0.0
30/01:30am 11.2 9.2 10.3 94 0.5 W 11 - 6 - 1029.1 1029.1 0.0
30/01:00am 11.2 9.6 10.3 94 0.5 WNW 9 - 5 - 1029.2 1029.2 0.0
30/12:30am 11.2 9.5 9.8 91 0.7 WNW 9 - 5 - 1029.6 1029.6 0.0
30/12:00am 11.7 10.4 10.1 90 0.8 WNW 7 - 4 - 1029.8 1029.8 0.0
 
Date/Time
EST
Temp
°C
App
Temp
°C
Dew
Point
Rel
Hum
%
Delta-T
°C
Wind Press
QNH
hPa
Press
MSL
hPa
Rain
since 9 am
mm
Dir
 
Spd
km/h
Gust
km/h
Spd
kts
Gust
kts
29/11:30pm 12.2 9.9 10.4 89 0.9 W 13 - 7 - 1030.2 1030.2 0.0
29/11:00pm 12.6 11.5 10.5 87 1.1 NW 7 - 4 - 1030.3 1030.3 0.0
29/10:30pm 13.3 12.4 10.7 84 1.4 WNW 6 - 3 - 1030.6 1030.6 0.0
29/10:00pm 13.8 13.4 11.0 83 1.5 NNE 4 - 2 - 1030.6 1030.6 0.0
29/09:30pm 13.8 13.3 10.6 81 1.7 W 4 - 2 - 1030.7 1030.7 0.0
29/09:00pm 14.8 14.1 10.0 73 2.5 NNW 4 - 2 - 1030.7 1030.7 0.0
29/08:30pm 15.1 14.7 9.9 71 2.7 NNW 2 - 1 - 1030.6 1030.6 0.0
29/08:00pm 15.4 14.7 10.2 71 2.7 NNW 4 - 2 - 1030.8 1030.8 0.0
29/07:30pm 15.2 14.8 9.8 70 2.8 NW 2 - 1 - 1030.9 1030.9 0.0
29/07:00pm 15.4 15.4 9.7 69 2.9 CALM 0 - 0 - 1030.8 1030.8 0.0
29/06:30pm 15.5 14.6 9.4 67 3.2 NW 4 - 2 - 1030.8 1030.8 0.0
29/06:00pm 16.0 15.1 9.4 65 3.4 NNW 4 - 2 - 1030.6 1030.6 0.0
29/05:30pm 16.4 15.2 9.6 64 3.5 N 6 - 3 - 1030.5 1030.5 0.0
29/05:00pm 16.6 15.2 9.5 63 3.7 ENE 7 - 4 - 1030.1 1030.1 0.0
29/04:30pm 16.8 14.9 9.2 61 3.9 ENE 9 - 5 - 1030.1 1030.1 0.0
29/04:00pm 17.0 14.7 8.9 59 4.2 E 11 - 6 - 1029.9 1029.9 0.0
29/03:30pm 17.5 15.2 8.9 57 4.5 E 11 - 6 - 1029.9 1029.9 0.0
29/03:00pm 17.8 15.7 8.4 54 4.8 E 9 - 5 - 1030.0 1030.0 0.0
29/02:30pm 18.0 16.4 8.6 54 4.9 E 7 - 4 - 1030.1 1030.1 0.0
29/02:00pm 17.7 16.3 7.4 51 5.2 E 4 - 2 - 1030.2 1030.2 0.0
29/01:30pm 18.5 17.7 8.2 51 5.3 NNE 2 - 1 - 1030.4 1030.4 0.0
29/01:00pm 18.4 17.1 9.2 55 4.8 WNW 6 - 3 - 1030.6 1030.6 0.0
29/12:30pm 16.8 14.9 9.0 60 4.0 WNW 9 - 5 - 1031.3 1031.3 0.0
29/12:00pm 15.5 13.1 8.5 63 3.5 WNW 11 - 6 - 1031.8 1031.8 0.0
29/11:30am 15.0 12.3 8.9 67 3.1 WNW 13 - 7 - 1032.6 1032.6 0.0
29/11:00am 14.4 11.2 8.6 68 2.9 W 15 - 8 - 1033.0 1033.0 0.0
29/10:30am 13.3 10.0 9.7 79 1.8 W 17 - 9 - 1033.5 1033.5 0.0
29/10:00am 12.1 9.0 8.8 80 1.6 W 15 - 8 - 1033.7 1033.7 0.0
29/09:30am 11.6 8.5 8.8 83 1.4 W 15 - 8 - 1033.5 1033.5 0.0
29/09:00am 11.0 7.0 8.4 84 1.3 W 19 - 10 - 1033.4 1033.4 0.0
29/08:30am 10.6 6.6 8.4 86 1.1 W 19 - 10 - 1033.3 1033.3 0.0
29/08:00am 10.3 6.7 8.4 88 0.9 W 17 - 9 - 1033.3 1033.3 0.0
29/07:30am 9.8 6.2 8.2 90 0.8 W 17 - 9 - 1033.1 1033.1 0.0
29/07:00am 9.6 6.3 8.2 91 0.7 W 15 - 8 - 1033.0 1033.0 0.0
29/06:30am 9.7 6.5 8.3 91 0.7 W 15 - 8 - 1032.7 1032.7 0.0
29/06:00am 9.7 6.1 8.3 91 0.7 W 17 - 9 - 1032.5 1032.5 0.0
29/05:30am 9.7 6.1 8.5 92 0.6 W 17 - 9 - 1032.3 1032.3 0.0
29/05:00am 9.9 6.4 8.7 92 0.6 W 17 - 9 - 1032.3 1032.3 0.0
29/04:30am 10.0 6.5 8.8 92 0.6 WNW 17 - 9 - 1032.2 1032.2 0.0
29/04:00am 10.1 7.4 9.0 93 0.5 WNW 13 - 7 - 1032.1 1032.1 0.0
29/03:30am 9.9 7.2 8.8 93 0.5 W 13 - 7 - 1032.2 1032.2 0.0
29/03:00am 9.6 6.5 8.8 95 0.4 W 15 - 8 - 1032.2 1032.2 0.0
29/02:30am 9.6 6.5 8.8 95 0.4 W 15 - 8 - 1032.3 1032.3 0.0
29/02:00am 9.6 6.4 8.5 93 0.5 W 15 - 8 - 1032.4 1032.4 0.0
29/01:30am 9.7 6.5 8.6 93 0.5 W 15 - 8 - 1032.5 1032.5 0.0
29/01:00am 10.0 7.3 8.8 92 0.6 W 13 - 7 - 1032.5 1032.5 0.0
29/12:30am 10.5 7.5 9.1 91 0.7 W 15 - 8 - 1032.6 1032.6 0.0
29/12:00am 11.0 8.6 9.9 93 0.6 W 13 - 7 - 1032.8 1032.8 0.0
 
Date/Time
EST
Temp
°C
App
Temp
°C
Dew
Point
Rel
Hum
%
Delta-T
°C
Wind Press
QNH
hPa
Press
MSL
hPa
Rain
since 9 am
mm
Dir
 
Spd
km/h
Gust
km/h
Spd
kts
Gust
kts
28/11:30pm 11.0 7.8 10.1 94 0.5 W 17 - 9 - 1033.0 1033.0 0.0
28/11:00pm 11.0 8.6 10.1 94 0.5 W 13 - 7 - 1032.8 1032.8 0.0
28/10:30pm 11.0 8.6 9.9 93 0.6 W 13 - 7 - 1032.8 1032.8 0.0
28/10:00pm 11.4 9.1 10.3 93 0.6 W 13 - 7 - 1032.8 1032.8 0.0
28/09:30pm 11.7 9.1 10.6 93 0.6 W 15 - 8 - 1033.1 1033.1 0.0
28/09:00pm 11.8 9.9 10.5 92 0.7 W 11 - 6 - 1032.7 1032.7 0.0
28/08:30pm 12.3 10.9 10.9 91 0.7 WNW 9 - 5 - 1032.6 1032.6 0.0
28/08:00pm 12.7 12.2 10.8 88 1.0 NNW 4 - 2 - 1032.5 1032.5 0.0
28/07:30pm 13.3 12.8 10.7 84 1.4 NNW 4 - 2 - 1032.3 1032.3 0.0
28/07:00pm 14.0 13.8 10.4 79 1.9 N 2 - 1 - 1032.1 1032.1 0.0
28/06:30pm 14.3 13.7 9.1 71 2.7 NNE 2 - 1 - 1031.8 1031.8 0.0
28/06:00pm 14.2 13.2 9.0 71 2.6 S 4 - 2 - 1031.4 1031.4 0.0
28/05:30pm 14.5 13.1 8.9 69 2.8 SSE 6 - 3 - 1031.1 1031.1 0.0
28/05:00pm 15.0 13.4 8.7 66 3.2 SSE 7 - 4 - 1031.0 1031.0 0.0
28/04:30pm 15.7 13.6 8.4 62 3.7 SSE 9 - 5 - 1031.0 1031.0 0.0
28/04:00pm 16.4 14.2 7.9 57 4.3 ESE 9 - 5 - 1031.1 1031.1 0.0
28/03:30pm 17.7 15.8 7.4 51 5.2 SE 7 - 4 - 1031.0 1031.0 0.0
28/03:00pm 18.5 16.5 8.7 53 5.1 ESE 9 - 5 - 1030.9 1030.9 0.0
28/02:30pm 18.4 16.7 7.5 49 5.5 NE 6 - 3 - 1031.0 1031.0 0.0
28/02:00pm 18.9 18.1 8.3 50 5.4 WSW 2 - 1 - 1030.9 1030.9 0.0
28/01:30pm 18.5 16.9 7.9 50 5.4 W 6 - 3 - 1031.0 1031.0 0.0
28/01:00pm 17.4 15.0 7.2 51 5.1 WNW 9 - 5 - 1031.3 1031.3 0.0
28/12:30pm 15.7 12.5 7.0 56 4.3 WNW 13 - 7 - 1031.6 1031.6 0.0
28/12:00pm 14.0 10.4 6.6 61 3.5 WNW 15 - 8 - 1031.9 1031.9 0.0
28/11:30am 13.0 8.8 5.7 61 3.4 WNW 17 - 9 - 1032.4 1032.4 0.0
28/11:00am 12.1 7.9 5.5 64 3.0 WNW 17 - 9 - 1032.8 1032.8 0.0
28/10:30am 11.4 6.7 5.1 65 2.9 W 19 - 10 - 1033.2 1033.2 0.0
28/10:00am 10.8 6.0 4.9 67 2.7 W 19 - 10 - 1033.3 1033.3 0.0
28/09:30am 10.1 5.3 4.9 70 2.3 W 19 - 10 - 1033.2 1033.2 0.0
28/09:00am 9.3 4.3 4.7 73 2.0 W 20 - 11 - 1032.9 1032.9 0.0
28/08:30am 8.8 3.8 4.8 76 1.8 W 20 - 11 - 1032.7 1032.7 0.0
28/08:00am 8.3 3.7 5.4 82 1.3 W 19 - 10 - 1032.6 1032.6 0.0
28/07:30am 8.1 3.9 5.9 86 1.0 WNW 17 - 9 - 1032.3 1032.3 0.0
28/07:00am 7.6 2.9 6.2 91 0.6 W 20 - 11 - 1031.9 1031.9 0.0
28/06:30am 7.6 3.6 6.5 93 0.5 WNW 17 - 9 - 1031.5 1031.5 0.0
28/06:00am 7.7 3.7 6.6 93 0.5 WNW 17 - 9 - 1031.1 1031.1 0.0
28/05:30am 7.9 4.4 7.0 94 0.4 WNW 15 - 8 - 1030.9 1030.9 0.0
28/05:00am 8.1 4.6 7.3 95 0.4 W 15 - 8 - 1030.7 1030.7 0.0
28/04:30am 8.2 4.3 7.3 94 0.4 WNW 17 - 9 - 1030.6 1030.6 0.0
28/04:00am 8.4 5.0 7.5 94 0.4 W 15 - 8 - 1030.5 1030.5 0.0
28/03:30am 8.5 5.1 7.6 94 0.4 W 15 - 8 - 1030.5 1030.5 0.0
28/03:00am 8.7 5.3 7.8 94 0.4 W 15 - 8 - 1030.5 1030.5 0.0
28/02:30am 9.2 5.5 8.1 93 0.5 W 17 - 9 - 1030.6 1030.6 0.0
28/02:00am 9.5 6.6 8.3 92 0.6 W 13 - 7 - 1030.7 1030.7 0.0
28/01:30am 9.6 6.3 8.2 91 0.7 W 15 - 8 - 1030.6 1030.6 0.0
28/01:00am 10.0 6.5 8.6 91 0.7 W 17 - 9 - 1030.6 1030.6 0.0
28/12:30am 9.9 6.8 8.7 92 0.6 W 15 - 8 - 1030.6 1030.6 0.0
28/12:00am 9.9 7.0 8.3 90 0.8 W 13 - 7 - 1030.7 1030.7 0.0
 
Date/Time
EST
Temp
°C
App
Temp
°C
Dew
Point
Rel
Hum
%
Delta-T
°C
Wind Press
QNH
hPa
Press
MSL
hPa
Rain
since 9 am
mm
Dir
 
Spd
km/h
Gust
km/h
Spd
kts
Gust
kts
27/11:30pm 10.3 7.2 8.9 91 0.7 W 15 - 8 - 1030.8 1030.8 0.0
27/11:00pm 10.6 8.0 9.2 91 0.7 WNW 13 - 7 - 1030.8 1030.8 0.0
27/10:30pm 10.8 8.2 9.2 90 0.8 W 13 - 7 - 1030.8 1030.8 0.0
27/10:00pm 11.1 8.5 9.5 90 0.8 WNW 13 - 7 - 1030.9 1030.9 0.0
27/09:30pm 11.4 9.3 9.7 89 0.9 WNW 11 - 6 - 1031.0 1031.0 0.0
27/09:00pm 11.8 10.7 10.0 89 0.9 WNW 6 - 3 - 1031.0 1031.0 0.0
27/08:30pm 12.2 9.8 9.9 86 1.2 WNW 13 - 7 - 1030.9 1030.9 0.0

Other Formats:

Comma delimited format used in spreadsheet applications
http://www.bom.gov.au/fwo/IDN60801/IDN60801.94768.axf

JavaScript Object Notation format (JSON) in row-major order
http://www.bom.gov.au/fwo/IDN60801/IDN60801.94768.json